createdAt,value
2018-07-07T00:01:17.241Z,17.80
2018-07-07T00:03:48.975Z,17.80
2018-07-07T00:06:20.475Z,17.80
2018-07-07T00:08:52.080Z,17.80
2018-07-07T00:11:24.084Z,17.80
2018-07-07T00:13:56.352Z,17.70
2018-07-07T00:16:27.240Z,17.70
2018-07-07T00:18:57.602Z,17.60
2018-07-07T00:23:58.771Z,17.50
2018-07-07T00:26:29.729Z,17.30
2018-07-07T00:29:00.871Z,17.30
2018-07-07T00:31:32.156Z,17.30
2018-07-07T00:34:02.536Z,17.30
2018-07-07T00:36:34.109Z,17.20
2018-07-07T00:39:05.657Z,17.40
2018-07-07T00:41:36.944Z,17.30
2018-07-07T00:44:06.809Z,17.20
2018-07-07T00:46:37.112Z,17.10
2018-07-07T00:51:41.159Z,17.00
2018-07-07T00:54:11.978Z,16.80
2018-07-07T00:59:13.061Z,16.90
2018-07-07T01:01:45.368Z,16.90
2018-07-07T01:04:18.123Z,17.00
2018-07-07T01:06:49.744Z,17.00
2018-07-07T01:09:21.624Z,17.00
2018-07-07T01:11:53.362Z,16.90
2018-07-07T01:14:24.050Z,17.00
2018-07-07T01:16:55.378Z,17.20
2018-07-07T01:19:26.673Z,17.00
2018-07-07T01:21:59.654Z,16.70
2018-07-07T01:24:31.235Z,16.60
2018-07-07T01:27:02.160Z,16.60
2018-07-07T01:32:03.518Z,16.70
2018-07-07T01:37:01.358Z,16.70
2018-07-07T01:39:33.917Z,16.50
2018-07-07T01:42:05.552Z,16.40
2018-07-07T01:47:05.135Z,16.40
2018-07-07T01:49:33.683Z,16.40
2018-07-07T01:52:04.401Z,16.30
2018-07-07T01:54:36.161Z,16.60
2018-07-07T01:57:04.649Z,16.40
2018-07-07T01:59:33.609Z,16.30
2018-07-07T02:04:32.699Z,16.20
2018-07-07T02:07:01.457Z,16.20
2018-07-07T02:09:32.718Z,16.50
2018-07-07T02:12:00.874Z,16.40
2018-07-07T02:14:29.412Z,16.20
2018-07-07T02:16:58.031Z,16.20
2018-07-07T02:19:29.605Z,16.10
2018-07-07T02:22:00.235Z,16.00
2018-07-07T02:24:30.362Z,16.00
2018-07-07T02:27:00.599Z,16.00
2018-07-07T02:29:29.196Z,15.90
2018-07-07T02:31:58.774Z,15.90
2018-07-07T02:34:29.736Z,15.90
2018-07-07T02:36:59.089Z,15.90
2018-07-07T02:39:30.730Z,15.90
2018-07-07T02:46:57.587Z,15.90
2018-07-07T02:49:26.128Z,15.90
2018-07-07T02:51:54.769Z,15.80
2018-07-07T02:54:23.348Z,15.80
2018-07-07T02:59:22.454Z,15.70
2018-07-07T03:01:51.724Z,15.60
2018-07-07T03:04:20.223Z,15.50
2018-07-07T03:06:48.840Z,15.50
2018-07-07T03:09:18.678Z,15.80
2018-07-07T03:11:49.057Z,15.70
2018-07-07T03:14:20.374Z,15.60
2018-07-07T03:16:49.193Z,15.50
2018-07-07T03:19:17.784Z,15.40
2018-07-07T03:21:46.769Z,15.40
2018-07-07T03:26:45.597Z,15.40
2018-07-07T03:29:14.403Z,15.30
2018-07-07T03:41:43.171Z,14.80
2018-07-07T03:44:13.760Z,14.80
2018-07-07T03:49:10.216Z,15.00
2018-07-07T03:54:09.352Z,15.00
2018-07-07T03:56:39.041Z,14.90
2018-07-07T04:01:43.037Z,15.00
2018-07-07T04:04:11.554Z,15.00
2018-07-07T04:09:10.683Z,14.90
2018-07-07T04:11:41.409Z,14.90
2018-07-07T04:16:42.124Z,14.80
2018-07-07T04:19:10.870Z,14.70
2018-07-07T04:21:40.366Z,14.70
2018-07-07T04:24:12.408Z,14.80
2018-07-07T04:26:44.493Z,14.90
2018-07-07T04:29:17.016Z,14.90
2018-07-07T05:11:07.117Z,15.20
2018-07-07T05:13:35.443Z,15.60
2018-07-07T05:16:11.378Z,15.50
2018-07-07T05:18:40.018Z,15.40
2018-07-07T05:23:39.337Z,15.50
2018-07-07T05:26:08.150Z,15.50
2018-07-07T05:28:38.620Z,15.50
2018-07-07T05:31:07.658Z,15.50
2018-07-07T05:33:35.979Z,15.50
2018-07-07T05:36:08.769Z,15.90
2018-07-07T05:38:37.134Z,15.80
2018-07-07T05:41:05.535Z,16.20
2018-07-07T05:43:35.116Z,16.20
2018-07-07T05:46:04.412Z,16.40
2018-07-07T05:48:32.718Z,16.50
2018-07-07T05:51:03.997Z,16.20
2018-07-07T05:56:00.512Z,16.30
2018-07-07T05:58:28.767Z,16.20
2018-07-07T06:00:57.163Z,16.40
2018-07-07T06:03:26.987Z,16.30
2018-07-07T06:05:55.370Z,16.10
2018-07-07T06:08:23.748Z,16.10
2018-07-07T06:10:52.108Z,16.50
2018-07-07T06:13:22.022Z,16.40
2018-07-07T06:15:50.392Z,16.60
2018-07-07T06:18:19.894Z,16.50
2018-07-07T06:20:48.235Z,16.40
2018-07-07T06:25:44.627Z,16.60
2018-07-07T06:28:14.486Z,16.60
2018-07-07T06:30:49.433Z,16.60
2018-07-07T06:33:17.783Z,16.70
2018-07-07T06:35:46.980Z,16.80
2018-07-07T06:38:15.402Z,16.90
2018-07-07T06:40:47.536Z,16.90
2018-07-07T06:43:15.835Z,17.00
2018-07-07T06:48:12.238Z,17.00
2018-07-07T06:50:40.593Z,17.10
2018-07-07T06:53:09.738Z,17.20
2018-07-07T06:55:39.767Z,17.30
2018-07-07T07:05:33.569Z,17.50
2018-07-07T07:08:01.985Z,17.40
2018-07-07T07:10:30.339Z,17.40
2018-07-07T07:15:27.969Z,17.70
2018-07-07T07:17:58.324Z,17.80
2018-07-07T07:20:30.868Z,18.00
2018-07-07T07:22:59.638Z,18.10
2018-07-07T07:25:28.032Z,18.60
2018-07-07T07:27:58.118Z,18.50
2018-07-07T07:35:36.517Z,18.20
2018-07-07T07:38:04.937Z,18.10
2018-07-07T07:45:31.729Z,17.70
2018-07-07T07:48:00.070Z,17.70
2018-07-07T07:50:29.879Z,18.10
2018-07-07T07:52:59.605Z,18.00
2018-07-07T07:55:31.871Z,18.00
2018-07-07T07:58:01.311Z,18.10
2018-07-07T08:02:57.981Z,18.40
2018-07-07T08:05:39.828Z,18.50
2018-07-07T08:08:09.504Z,18.60
2018-07-07T08:10:37.878Z,18.60
2018-07-07T08:13:06.640Z,18.50
2018-07-07T08:18:04.807Z,18.50
2018-07-07T08:25:32.044Z,18.90
2018-07-07T08:30:32.501Z,19.20
2018-07-07T08:33:00.929Z,19.30
2018-07-07T08:40:58.678Z,19.50
2018-07-07T08:43:31.007Z,19.50
2018-07-07T08:48:32.171Z,19.60
2018-07-07T08:55:59.242Z,19.60
2018-07-07T09:00:58.191Z,19.80
2018-07-07T09:03:28.036Z,20.30
2018-07-07T09:06:06.881Z,20.20
2018-07-07T09:11:07.107Z,20.20
2018-07-07T09:13:39.100Z,20.30
2018-07-07T09:16:07.512Z,20.40
2018-07-07T09:18:35.902Z,20.80
2018-07-07T09:21:05.962Z,20.50
2018-07-07T09:26:03.773Z,19.70
2018-07-07T09:28:34.261Z,19.60
2018-07-07T09:31:02.952Z,19.70
2018-07-07T09:33:31.409Z,19.90
2018-07-07T09:36:01.213Z,20.10
2018-07-07T09:38:31.645Z,20.30
2018-07-07T09:41:01.301Z,20.50
2018-07-07T09:43:30.767Z,20.50
2018-07-07T09:46:01.003Z,20.60
2018-07-07T09:48:30.349Z,20.60
2018-07-07T09:51:04.948Z,20.80
2018-07-07T09:58:34.707Z,20.80
2018-07-07T10:01:03.378Z,20.90
2018-07-07T10:06:02.282Z,20.70
2018-07-07T10:08:30.684Z,20.70
2018-07-07T10:11:00.540Z,20.70
2018-07-07T10:13:28.925Z,21.10
2018-07-07T10:18:27.085Z,21.10
2018-07-07T10:20:56.513Z,21.30
2018-07-07T10:23:27.787Z,21.40
2018-07-07T10:25:56.456Z,21.30
2018-07-07T10:28:25.683Z,21.50
2018-07-07T10:33:25.684Z,21.80
2018-07-07T10:35:55.929Z,21.70
2018-07-07T10:38:28.956Z,21.60
2018-07-07T10:41:03.385Z,21.60
2018-07-07T10:43:31.269Z,21.60
2018-07-07T10:46:01.218Z,21.50
2018-07-07T10:48:29.629Z,21.50
2018-07-07T10:55:55.228Z,21.50
2018-07-07T10:58:24.675Z,21.40
2018-07-07T11:03:21.299Z,21.40
2018-07-07T11:05:49.750Z,21.80
2018-07-07T11:08:18.131Z,21.90
2018-07-07T11:10:46.504Z,21.90
2018-07-07T11:13:19.881Z,21.90
2018-07-07T11:15:48.315Z,22.10
2018-07-07T11:18:18.087Z,22.20
2018-07-07T11:20:46.915Z,22.10
2018-07-07T11:23:18.380Z,22.60
2018-07-07T11:25:46.732Z,22.50
2018-07-07T11:28:15.143Z,22.30
2018-07-07T11:30:44.962Z,22.00
2018-07-07T11:35:41.621Z,21.90
2018-07-07T11:40:39.798Z,22.40
2018-07-07T11:43:09.500Z,22.40
2018-07-07T11:45:38.746Z,22.80
2018-07-07T11:48:08.542Z,23.00
2018-07-07T11:50:38.576Z,22.60
2018-07-07T11:53:07.125Z,22.50
2018-07-07T11:55:36.936Z,22.80
2018-07-07T11:58:05.471Z,23.20
2018-07-07T12:00:41.947Z,23.00
2018-07-07T12:03:14.013Z,22.80
2018-07-07T12:05:42.395Z,22.60
2018-07-07T12:08:13.991Z,22.50
2018-07-07T12:10:41.045Z,22.60
2018-07-07T12:13:09.384Z,22.80
2018-07-07T12:15:37.812Z,22.80
2018-07-07T12:18:06.333Z,22.90
2018-07-07T12:20:34.918Z,23.00
2018-07-07T12:23:03.274Z,23.30
2018-07-07T12:25:31.695Z,23.30
2018-07-07T12:28:00.034Z,23.10
2018-07-07T12:30:28.436Z,23.10
2018-07-07T12:32:56.787Z,23.30
2018-07-07T12:40:21.752Z,28.00
2018-07-07T12:42:50.072Z,29.40
2018-07-07T12:45:18.513Z,28.40
2018-07-07T12:47:46.888Z,29.70
2018-07-07T12:50:18.198Z,32.00
2018-07-07T12:55:15.666Z,34.30
2018-07-07T12:57:44.343Z,34.00
2018-07-07T13:00:13.025Z,34.30
2018-07-07T13:02:42.381Z,37.10
2018-07-07T13:05:11.211Z,37.00
2018-07-07T13:07:42.875Z,37.10
2018-07-07T13:10:11.339Z,37.10
2018-07-07T13:12:41.220Z,38.70
2018-07-07T13:15:22.311Z,38.40
2018-07-07T13:17:51.567Z,38.50
2018-07-07T13:20:21.193Z,38.40
2018-07-07T13:22:50.513Z,38.30
2018-07-07T13:25:19.985Z,38.50
2018-07-07T13:27:49.818Z,38.80
2018-07-07T13:30:18.381Z,39.10
2018-07-07T13:32:48.054Z,39.30
2018-07-07T13:35:16.470Z,39.60
2018-07-07T13:37:55.835Z,41.90
2018-07-07T13:40:25.509Z,43.00
2018-07-07T13:45:22.056Z,41.70
2018-07-07T13:47:50.677Z,41.00
2018-07-07T13:50:20.115Z,39.70
2018-07-07T13:52:48.613Z,40.10
2018-07-07T13:55:17.479Z,41.60
2018-07-07T14:00:13.967Z,42.20
2018-07-07T14:02:43.586Z,42.50
2018-07-07T14:07:41.220Z,44.90
2018-07-07T14:10:09.643Z,43.90
2018-07-07T14:12:37.984Z,42.60
2018-07-07T14:15:06.454Z,42.30
2018-07-07T14:17:35.014Z,40.70
2018-07-07T14:20:04.294Z,42.90
2018-07-07T14:22:32.647Z,43.80
2018-07-07T14:25:00.960Z,44.80
2018-07-07T14:27:30.519Z,44.00
2018-07-07T14:30:00.230Z,43.40
2018-07-07T14:32:28.797Z,42.80
2018-07-07T14:34:58.884Z,43.60
2018-07-07T14:37:28.587Z,43.70
2018-07-07T14:40:05.609Z,43.60
2018-07-07T14:42:43.033Z,43.30
2018-07-07T14:45:27.376Z,43.30
2018-07-07T14:47:57.722Z,43.40
2018-07-07T14:50:29.198Z,43.10
2018-07-07T14:52:58.967Z,42.50
2018-07-07T14:55:29.335Z,42.50
2018-07-07T14:57:58.067Z,41.80
2018-07-07T15:00:28.961Z,41.20
2018-07-07T15:02:59.493Z,40.90
2018-07-07T15:05:28.909Z,41.30
2018-07-07T15:08:01.910Z,41.20
2018-07-07T15:10:30.845Z,40.60
2018-07-07T15:15:30.892Z,40.00
2018-07-07T15:17:59.557Z,39.80
2018-07-07T15:20:28.011Z,39.90
2018-07-07T15:22:56.830Z,39.80
2018-07-07T15:25:26.842Z,40.10
2018-07-07T15:27:57.990Z,40.80
2018-07-07T15:33:01.245Z,39.20
2018-07-07T15:38:01.921Z,39.00
2018-07-07T15:40:32.835Z,39.90
2018-07-07T15:43:28.013Z,40.10
2018-07-07T15:53:23.380Z,37.80
2018-07-07T15:55:51.780Z,37.40
2018-07-07T15:58:21.272Z,36.60
2018-07-07T16:00:51.676Z,35.90
2018-07-07T16:05:51.596Z,36.00
2018-07-07T16:08:21.457Z,35.80
2018-07-07T16:10:52.919Z,35.10
2018-07-07T16:13:23.258Z,35.10
2018-07-07T16:15:53.059Z,35.10
2018-07-07T16:18:29.110Z,35.00
2018-07-07T16:21:02.888Z,34.80
2018-07-07T16:28:31.073Z,34.40
2018-07-07T16:30:59.830Z,34.20
2018-07-07T16:33:29.509Z,34.10
2018-07-07T16:35:59.259Z,33.90
2018-07-07T16:38:28.880Z,33.70
2018-07-07T16:41:05.384Z,33.30
2018-07-07T16:51:02.610Z,32.60
2018-07-07T16:53:32.846Z,32.60
2018-07-07T16:56:02.317Z,32.50
2018-07-07T16:58:41.559Z,32.00
2018-07-07T17:01:12.481Z,31.50
2018-07-07T17:03:40.892Z,31.10
2018-07-07T17:06:10.197Z,30.90
2018-07-07T17:08:41.068Z,30.70
2018-07-07T17:11:11.057Z,30.40
2018-07-07T17:13:39.984Z,30.10
2018-07-07T17:16:09.436Z,30.00
2018-07-07T17:21:07.449Z,29.80
2018-07-07T17:23:37.349Z,29.60
2018-07-07T17:26:08.932Z,29.30
2018-07-07T17:28:38.883Z,29.00
2018-07-07T17:33:35.421Z,28.90
2018-07-07T17:36:07.393Z,28.80
2018-07-07T17:41:05.149Z,28.90
2018-07-07T17:43:36.400Z,28.80
2018-07-07T17:46:06.918Z,28.40
2018-07-07T17:48:35.641Z,28.20
2018-07-07T17:51:05.777Z,28.20
2018-07-07T17:53:35.066Z,28.30
2018-07-07T17:58:42.384Z,28.10
2018-07-07T18:03:40.428Z,27.80
2018-07-07T18:06:10.025Z,27.70
2018-07-07T18:08:40.198Z,27.60
2018-07-07T18:11:19.208Z,27.80
2018-07-07T18:13:49.844Z,27.80
2018-07-07T18:16:18.479Z,27.70
2018-07-07T18:18:46.918Z,27.70
2018-07-07T18:26:11.639Z,26.80
2018-07-07T18:31:08.096Z,26.60
2018-07-07T18:41:02.144Z,26.70
2018-07-07T18:43:32.028Z,26.60
2018-07-07T18:46:01.647Z,26.40
2018-07-07T18:53:30.565Z,26.60
2018-07-07T18:56:02.017Z,26.30
2018-07-07T18:58:31.321Z,26.00
2018-07-07T19:03:30.929Z,25.50
2018-07-07T19:06:00.183Z,25.20
2018-07-07T19:08:29.940Z,25.30
2018-07-07T19:11:01.437Z,24.90
2018-07-07T19:13:31.606Z,24.60
2018-07-07T19:16:02.146Z,24.40
2018-07-07T19:18:31.822Z,24.30
2018-07-07T19:21:18.242Z,24.10
2018-07-07T19:24:05.620Z,24.00
2018-07-07T19:26:53.457Z,23.80
2018-07-07T19:35:16.796Z,23.50
2018-07-07T19:37:46.502Z,23.40
2018-07-07T19:40:15.612Z,23.60
2018-07-07T19:42:44.088Z,23.40
2018-07-07T19:45:13.968Z,23.20
2018-07-07T19:47:42.493Z,23.00
2018-07-07T19:50:11.756Z,22.80
2018-07-07T19:52:40.195Z,22.70
2018-07-07T19:57:36.791Z,22.40
2018-07-07T20:00:05.172Z,22.20
2018-07-07T20:02:34.166Z,22.50
2018-07-07T20:05:06.100Z,22.40
2018-07-07T20:12:30.660Z,22.00
2018-07-07T20:14:59.551Z,21.90
2018-07-07T20:18:05.323Z,21.70
2018-07-07T20:20:51.453Z,21.70
2018-07-07T20:26:03.977Z,21.50
2018-07-07T20:28:51.551Z,21.40
2018-07-07T20:31:19.886Z,21.30
2018-07-07T20:33:49.044Z,21.20
2018-07-07T20:36:18.899Z,21.20
2018-07-07T20:38:47.737Z,21.10
2018-07-07T20:41:16.096Z,21.10
2018-07-07T20:43:44.507Z,21.00
2018-07-07T20:46:12.923Z,20.90
2018-07-07T20:48:41.245Z,20.80
2018-07-07T20:51:09.645Z,20.80
2018-07-07T20:53:38.163Z,20.80
2018-07-07T20:56:06.681Z,20.70
2018-07-07T20:58:35.113Z,20.70
2018-07-07T21:01:04.369Z,20.60
2018-07-07T21:03:32.765Z,20.50
2018-07-07T21:06:06.256Z,20.70
2018-07-07T21:08:34.715Z,20.50
2018-07-07T21:13:31.163Z,20.30
2018-07-07T21:15:59.518Z,20.10
2018-07-07T21:18:27.908Z,20.10
2018-07-07T21:20:57.335Z,20.00
2018-07-07T21:23:26.281Z,19.90
2018-07-07T21:25:54.556Z,19.90
2018-07-07T21:28:26.520Z,19.80
2018-07-07T21:30:55.464Z,19.70
2018-07-07T21:33:25.201Z,19.60
2018-07-07T21:35:54.924Z,19.40
2018-07-07T21:38:23.702Z,19.30
2018-07-07T21:40:52.169Z,19.30
2018-07-07T21:43:21.935Z,19.30
2018-07-07T21:48:18.436Z,19.20
2018-07-07T21:50:46.832Z,19.50
2018-07-07T21:53:15.155Z,19.60
2018-07-07T22:01:38.396Z,19.10
2018-07-07T22:04:24.533Z,19.00
2018-07-07T22:07:10.562Z,18.90
2018-07-07T22:09:39.063Z,18.80
2018-07-07T22:12:07.421Z,18.70
2018-07-07T22:14:35.789Z,18.70
2018-07-07T22:19:32.233Z,18.50
2018-07-07T22:24:39.473Z,18.70
2018-07-07T22:27:12.096Z,18.60
2018-07-07T22:29:40.512Z,18.50
2018-07-07T22:37:18.078Z,18.20
2018-07-07T22:39:46.916Z,18.10
2018-07-07T22:44:48.563Z,17.90
2018-07-07T22:47:16.924Z,17.80
2018-07-07T22:49:45.269Z,17.80
2018-07-07T22:52:13.617Z,17.70
2018-07-07T22:59:38.125Z,17.60
2018-07-07T23:02:06.620Z,17.60
2018-07-07T23:04:34.958Z,17.60
2018-07-07T23:07:03.262Z,17.90
2018-07-07T23:09:31.579Z,17.60
2018-07-07T23:11:59.916Z,17.40
2018-07-07T23:14:28.242Z,17.30
2018-07-07T23:17:01.078Z,17.40
2018-07-07T23:19:29.480Z,17.60
2018-07-07T23:24:25.950Z,17.60
2018-07-07T23:26:54.311Z,17.30
2018-07-07T23:36:46.883Z,16.90
2018-07-07T23:39:15.284Z,16.80
2018-07-07T23:44:11.688Z,16.80
2018-07-07T23:46:39.976Z,16.80
2018-07-07T23:49:08.353Z,16.80
2018-07-07T23:51:36.695Z,16.80
2018-07-07T23:54:05.066Z,16.70
2018-07-07T23:59:01.545Z,16.60
